Time;durP1;ratioP1;P1;durP2;ratioP2;P2;SDS_P1;SDS_P2;PMS_P1;PMS_P2;Temp;Humidity;BMP_temperature;BMP_pressure;BME280_temperature;BME280_humidity;BME280_pressure;Samples;Min_cycle;Max_cycle;Signal;HPM_P1;HPM_P2
2022/07/18 00:00:11;;;;;;;6.57;2.35;;;;;;;16.33;72.54;97010.03;5038547;28;20232;-70
2022/07/18 00:02:38;;;;;;;3.00;2.20;;;;;;;16.34;73.08;97017.00;5037860;28;20205;-70
2022/07/18 00:05:05;;;;;;;4.28;2.40;;;;;;;16.32;73.56;97008.38;5038996;28;20658;-70
2022/07/18 00:07:33;;;;;;;3.22;2.35;;;;;;;16.46;73.04;97004.78;5038010;28;20201;-70
2022/07/18 00:10:00;;;;;;;3.10;2.40;;;;;;;16.35;73.11;97006.16;5038366;28;20622;-70
2022/07/18 00:12:26;;;;;;;4.68;2.40;;;;;;;16.40;73.38;97011.72;5037140;28;20197;-70
2022/07/18 00:14:53;;;;;;;3.28;2.00;;;;;;;16.48;72.62;97008.91;5037901;28;20197;-70
2022/07/18 00:17:20;;;;;;;3.45;1.92;;;;;;;16.21;73.63;97023.00;5038191;28;20197;-70
2022/07/18 00:19:46;;;;;;;3.40;2.40;;;;;;;16.43;73.32;97021.16;5038902;28;20209;-70
2022/07/18 00:22:13;;;;;;;3.88;2.10;;;;;;;16.37;73.80;97019.25;5037609;28;20221;-70
2022/07/18 00:24:40;;;;;;;4.72;2.25;;;;;;;16.18;74.78;97018.06;5037098;28;21139;-70
2022/07/18 00:27:07;;;;;;;3.05;2.10;;;;;;;15.98;76.19;97017.06;5038066;28;20204;-70
2022/07/18 00:29:35;;;;;;;4.28;2.45;;;;;;;16.03;75.96;97013.84;5038562;28;20789;-70
2022/07/18 00:32:02;;;;;;;2.80;2.22;;;;;;;15.91;75.88;97016.19;5035756;28;20307;-70
2022/07/18 00:34:28;;;;;;;5.68;2.05;;;;;;;15.83;76.02;97017.34;5037218;28;20204;-70
2022/07/18 00:36:55;;;;;;;5.97;2.40;;;;;;;15.82;75.73;97013.84;5038209;28;20214;-70
2022/07/18 00:39:21;;;;;;;3.22;2.15;;;;;;;15.82;75.70;97015.69;5037531;28;20204;-70
2022/07/18 00:41:50;;;;;;;3.28;2.47;;;;;;;15.89;75.00;97010.25;5037724;28;20229;-70
2022/07/18 00:44:18;;;;;;;4.60;2.45;;;;;;;15.84;75.06;97015.31;5037359;28;20221;-70
2022/07/18 00:46:44;;;;;;;3.67;2.35;;;;;;;15.73;75.80;97011.50;5037725;28;20439;-70
2022/07/18 00:49:10;;;;;;;4.35;2.10;;;;;;;15.63;76.30;97013.66;5037563;28;20205;-70
2022/07/18 00:51:38;;;;;;;2.88;1.90;;;;;;;15.72;75.41;97007.22;5037744;28;20760;-70
2022/07/18 00:54:04;;;;;;;4.60;2.13;;;;;;;15.66;75.52;97011.47;5036787;28;20224;-70
2022/07/18 00:56:31;;;;;;;4.38;2.30;;;;;;;15.79;74.45;97006.25;5037017;28;20974;-70
2022/07/18 00:58:59;;;;;;;4.65;1.98;;;;;;;15.78;74.49;97007.28;5037817;28;20204;-70
2022/07/18 01:01:42;;;;;;;3.63;1.92;;;;;;;15.61;74.78;97013.84;5037422;28;20221;-70
2022/07/18 01:04:09;;;;;;;5.82;2.10;;;;;;;15.63;74.65;97008.34;5036220;28;20254;-70
2022/07/18 01:06:36;;;;;;;6.38;2.30;;;;;;;15.63;74.51;97000.38;5037357;28;20212;-70
2022/07/18 01:09:03;;;;;;;3.20;1.98;;;;;;;15.61;74.91;97005.88;5037687;28;20212;-70
2022/07/18 01:11:29;;;;;;;2.90;1.90;;;;;;;15.50;74.74;97006.41;5037216;28;20229;-70
2022/07/18 01:13:55;;;;;;;4.22;2.00;;;;;;;15.81;73.06;96998.09;5036862;28;20197;-70
2022/07/18 01:16:23;;;;;;;5.25;2.28;;;;;;;15.82;73.61;97005.88;5037361;28;20197;-70
2022/07/18 01:18:51;;;;;;;2.65;2.25;;;;;;;15.69;73.50;97007.59;5037047;28;20198;-70
2022/07/18 01:21:19;;;;;;;4.57;2.10;;;;;;;15.35;74.38;97010.94;5037413;28;20225;-70
2022/07/18 01:23:45;;;;;;;4.85;2.22;;;;;;;15.30;74.46;97004.53;5036102;28;20709;-70
2022/07/18 01:26:13;;;;;;;3.60;1.88;;;;;;;15.22;76.08;97012.59;5036696;28;20212;-70
2022/07/18 01:28:40;;;;;;;5.65;2.42;;;;;;;15.31;75.22;97016.78;5036731;28;20201;-71
2022/07/18 01:31:06;;;;;;;3.08;2.03;;;;;;;15.13;74.41;97024.31;5038131;28;20227;-70
2022/07/18 01:33:33;;;;;;;3.95;2.40;;;;;;;15.32;73.60;97015.78;5033814;28;20209;-70
2022/07/18 01:36:00;;;;;;;3.45;1.92;;;;;;;15.28;74.75;97023.28;5036450;28;20223;-70
2022/07/18 01:38:29;;;;;;;3.13;2.08;;;;;;;15.41;75.04;97020.81;5037481;28;20228;-70
2022/07/18 01:40:56;;;;;;;3.72;2.13;;;;;;;15.13;75.47;97018.19;5036752;28;20231;-70
2022/07/18 01:43:22;;;;;;;2.85;2.28;;;;;;;15.01;76.75;97023.13;5035740;28;20311;-70
2022/07/18 01:45:49;;;;;;;3.38;2.03;;;;;;;14.90;76.63;97022.78;5036903;28;20205;-70
2022/07/18 01:48:16;;;;;;;4.10;2.08;;;;;;;15.10;75.87;97019.38;5036770;28;20204;-70
2022/07/18 01:50:43;;;;;;;4.30;1.80;;;;;;;15.44;74.50;97019.59;5036237;28;20695;-70
2022/07/18 01:53:09;;;;;;;3.85;2.00;;;;;;;15.29;74.60;97016.97;5036348;28;20201;-70
2022/07/18 01:55:37;;;;;;;5.35;2.10;;;;;;;15.05;74.35;97020.94;5036800;28;20201;-70
2022/07/18 01:58:04;;;;;;;5.45;2.30;;;;;;;15.10;74.04;97019.38;5036339;28;20201;-70
2022/07/18 02:00:31;;;;;;;3.65;2.00;;;;;;;15.17;73.28;97017.59;5036253;28;20740;-70
2022/07/18 02:02:57;;;;;;;2.67;1.90;;;;;;;14.96;73.47;97016.75;5035804;28;20577;-70
2022/07/18 02:05:24;;;;;;;4.03;1.80;;;;;;;14.99;73.91;97017.19;5036762;28;20676;-70
2022/07/18 02:07:50;;;;;;;8.30;2.00;;;;;;;14.95;73.62;97010.59;5036345;28;20204;-70
2022/07/18 02:10:19;;;;;;;3.25;2.17;;;;;;;14.92;74.18;97021.59;5036233;28;20221;-70
2022/07/18 02:12:47;;;;;;;2.67;1.98;;;;;;;14.92;74.70;97010.97;5036001;28;20205;-70
2022/07/18 02:15:15;;;;;;;3.50;2.33;;;;;;;15.10;74.07;97019.38;5036400;28;20201;-70
2022/07/18 02:17:42;;;;;;;5.82;1.92;;;;;;;14.95;74.50;97015.91;5036686;28;20212;-70
2022/07/18 02:20:11;;;;;;;3.15;1.80;;;;;;;14.95;75.05;97009.78;5036544;28;20266;-70
2022/07/18 02:22:38;;;;;;;3.30;2.13;;;;;;;14.78;75.62;97019.78;5035745;28;20257;-70
2022/07/18 02:25:06;;;;;;;2.88;1.73;;;;;;;14.83;76.25;97017.41;5036089;28;20224;-70
2022/07/18 02:27:33;;;;;;;4.75;1.70;;;;;;;14.86;75.33;97014.34;5036097;28;20205;-70
2022/07/18 02:30:00;;;;;;;3.55;2.25;;;;;;;14.76;76.59;97010.34;5036554;28;20201;-70
2022/07/18 02:32:27;;;;;;;2.65;1.80;;;;;;;14.70;76.36;97011.91;5032472;28;20201;-70
2022/07/18 02:34:53;;;;;;;2.65;1.83;;;;;;;14.59;76.24;97013.34;5036561;28;20205;-70
2022/07/18 02:37:20;;;;;;;9.07;2.15;;;;;;;14.74;75.36;97015.84;5039832;28;20205;-70
2022/07/18 02:39:46;;;;;;;3.28;1.67;;;;;;;14.64;76.22;97012.63;5037146;28;20635;-70
2022/07/18 02:42:13;;;;;;;7.57;2.92;;;;;;;14.53;76.40;97019.41;5039717;28;20220;-70
2022/07/18 02:44:40;;;;;;;4.90;2.42;;;;;;;14.40;77.53;97020.03;5040722;28;20228;-70
2022/07/18 02:47:08;;;;;;;5.25;1.92;;;;;;;14.45;78.04;97019.50;5039655;28;20621;-70
2022/07/18 02:49:35;;;;;;;2.90;2.10;;;;;;;14.37;77.88;97015.09;5039232;28;21148;-70
2022/07/18 02:52:03;;;;;;;2.53;1.92;;;;;;;14.52;77.57;97020.41;5040258;28;20220;-70
2022/07/18 02:54:31;;;;;;;2.70;2.10;;;;;;;14.43;78.01;97018.84;5039437;28;20205;-70
2022/07/18 02:56:58;;;;;;;3.67;1.85;;;;;;;14.36;77.55;97028.56;5039810;28;20208;-70
2022/07/18 02:59:25;;;;;;;6.82;2.38;;;;;;;14.53;76.41;97024.72;5039952;28;20587;-70
2022/07/18 03:01:52;;;;;;;2.30;1.75;;;;;;;14.19;78.21;97027.03;5039673;28;20941;-70
2022/07/18 03:04:20;;;;;;;3.40;1.90;;;;;;;14.47;77.53;97020.13;5038869;28;20226;-70
2022/07/18 03:06:48;;;;;;;3.13;2.15;;;;;;;14.36;77.44;97023.25;5039758;28;20208;-70
2022/07/18 03:09:15;;;;;;;4.68;2.25;;;;;;;14.40;76.94;97020.03;5039859;28;20209;-70
2022/07/18 03:11:42;;;;;;;4.53;2.08;;;;;;;14.19;77.76;97033.19;5039511;28;20228;-70
2022/07/18 03:14:09;;;;;;;4.18;2.13;;;;;;;14.15;78.38;97031.91;5039260;28;20200;-70
2022/07/18 03:16:36;;;;;;;6.80;2.28;;;;;;;14.19;77.93;97033.19;5039383;28;20212;-70
2022/07/18 03:19:02;;;;;;;3.40;1.90;;;;;;;14.02;78.63;97023.66;5039360;28;20204;-70
2022/07/18 03:21:30;;;;;;;3.10;2.10;;;;;;;14.25;78.50;97021.03;5039303;28;20241;-70
2022/07/18 03:23:57;;;;;;;5.80;2.33;;;;;;;14.30;77.38;97030.06;5038814;28;20224;-70
2022/07/18 03:26:24;;;;;;;4.05;1.75;;;;;;;14.26;77.08;97030.63;5039266;28;20197;-70
2022/07/18 03:28:50;;;;;;;2.55;1.90;;;;;;;14.31;77.03;97028.28;5039060;28;21211;-70
2022/07/18 03:31:17;;;;;;;4.85;1.90;;;;;;;14.33;77.33;97028.91;5039323;28;20594;-70
2022/07/18 03:33:44;;;;;;;3.65;2.10;;;;;;;14.43;76.72;97018.84;5035614;28;20645;-70
2022/07/18 03:36:10;;;;;;;5.75;1.92;;;;;;;14.20;76.96;97039.28;5038819;28;20685;-70
2022/07/18 03:38:42;;;;;;;3.40;2.03;;;;;;;14.35;76.99;97034.84;5039510;28;20224;-70
2022/07/18 03:41:09;;;;;;;5.63;2.00;;;;;;;14.28;77.03;97033.91;5038956;28;20223;-70
2022/07/18 03:43:36;;;;;;;5.22;2.05;;;;;;;14.03;78.51;97035.13;5038469;28;20205;-70
2022/07/18 03:46:02;;;;;;;3.97;2.05;;;;;;;14.26;78.09;97038.59;5038953;28;20201;-70
2022/07/18 03:48:29;;;;;;;4.00;2.20;;;;;;;14.17;78.31;97039.66;5037514;28;20311;-70
2022/07/18 03:50:55;;;;;;;9.20;2.53;;;;;;;14.16;78.09;97041.47;5038843;28;20229;-70
2022/07/18 03:53:22;;;;;;;5.38;2.08;;;;;;;14.13;77.47;97044.50;5038347;28;20213;-70
2022/07/18 03:55:49;;;;;;;4.00;2.33;;;;;;;14.23;77.89;97041.56;5039220;28;20201;-70
2022/07/18 03:58:16;;;;;;;3.58;2.00;;;;;;;14.15;78.28;97042.50;5038601;28;20208;-70
2022/07/18 04:00:42;;;;;;;4.75;2.30;;;;;;;14.06;79.22;97046.19;5038360;28;20646;-70
2022/07/18 04:03:09;;;;;;;4.72;2.15;;;;;;;14.12;79.21;97047.31;5038358;28;20204;-70
2022/07/18 04:05:35;;;;;;;14.40;2.58;;;;;;;13.93;80.56;97058.38;5038365;28;20221;-70
2022/07/18 04:08:02;;;;;;;6.60;2.45;;;;;;;13.98;81.22;97059.50;5038147;28;20721;-70
2022/07/18 04:10:28;;;;;;;5.10;2.47;;;;;;;14.12;80.54;97057.94;5038393;28;20221;-70
2022/07/18 04:12:57;;;;;;;7.97;2.38;;;;;;;14.31;80.39;97054.78;5037318;28;20678;-70
2022/07/18 04:15:25;;;;;;;15.70;2.28;;;;;;;14.20;80.49;97049.91;5038497;28;20204;-70
2022/07/18 04:17:52;;;;;;;7.93;2.25;;;;;;;14.18;80.33;97051.91;5038624;28;20201;-70
2022/07/18 04:20:21;;;;;;;5.57;2.42;;;;;;;14.32;79.13;97053.75;5038123;28;20233;-70
2022/07/18 04:22:49;;;;;;;5.72;2.85;;;;;;;14.35;79.47;97048.13;5037420;28;20212;-70
2022/07/18 04:25:16;;;;;;;8.18;2.65;;;;;;;14.41;79.93;97042.06;5038288;28;20225;-70
2022/07/18 04:27:43;;;;;;;6.47;2.58;;;;;;;14.28;79.72;97052.47;5038267;28;20583;-70
2022/07/18 04:30:13;;;;;;;7.72;2.35;;;;;;;14.39;80.39;97036.94;5037812;28;20225;-70
2022/07/18 04:32:40;;;;;;;8.68;2.28;;;;;;;14.41;80.21;97042.91;5034666;28;20212;-70
2022/07/18 04:35:08;;;;;;;7.97;2.80;;;;;;;14.49;80.73;97045.47;5038258;28;20205;-70
2022/07/18 04:37:34;;;;;;;5.97;2.78;;;;;;;14.43;81.15;97045.38;5038032;28;20201;-70
2022/07/18 04:40:02;;;;;;;6.32;2.60;;;;;;;14.63;80.98;97035.88;5037667;28;20205;-70
2022/07/18 04:42:30;;;;;;;6.45;2.88;;;;;;;14.59;81.71;97032.78;5037574;28;20205;-70
2022/07/18 04:44:57;;;;;;;7.88;2.35;;;;;;;14.73;82.20;97038.06;5037862;28;20692;-70
2022/07/18 04:47:24;;;;;;;10.10;2.53;;;;;;;14.87;83.02;97044.41;5037672;28;20201;-70
2022/07/18 04:49:51;;;;;;;11.63;2.45;;;;;;;14.88;83.14;97044.22;5037658;28;20209;-70
2022/07/18 04:52:18;;;;;;;7.75;3.00;;;;;;;15.08;81.82;97041.81;5037326;28;20208;-70
2022/07/18 04:54:44;;;;;;;8.20;3.40;;;;;;;15.21;79.30;97037.53;5036998;28;20579;-70
2022/07/18 04:57:11;;;;;;;6.05;3.45;;;;;;;15.42;77.83;97041.03;5037867;28;20211;-70
2022/07/18 04:59:38;;;;;;;8.50;3.38;;;;;;;15.60;78.57;97036.13;5037822;28;20197;-71
2022/07/18 05:02:05;;;;;;;5.93;3.10;;;;;;;15.68;79.44;97029.84;5036776;28;20214;-70
2022/07/18 05:04:32;;;;;;;9.07;3.17;;;;;;;15.86;79.51;97029.25;5036469;28;21359;-70
2022/07/18 05:06:59;;;;;;;9.13;3.38;;;;;;;15.83;79.58;97035.94;5038217;28;20197;-70
2022/07/18 05:09:26;;;;;;;7.43;3.15;;;;;;;15.90;80.30;97041.13;5037265;28;20665;-70
2022/07/18 05:11:53;;;;;;;11.95;3.58;;;;;;;16.10;79.81;97030.66;5036221;28;20217;-69
2022/07/18 05:14:20;;;;;;;6.10;3.83;;;;;;;16.17;79.63;97029.72;5036187;28;20208;-70
2022/07/18 05:16:47;;;;;;;8.48;4.15;;;;;;;16.33;79.26;97029.47;5036570;28;20223;-70
2022/07/18 05:19:15;;;;;;;8.82;4.28;;;;;;;16.43;80.04;97031.78;5036407;28;20205;-70
2022/07/18 05:21:42;;;;;;;13.50;4.95;;;;;;;16.75;78.28;97029.34;5036094;28;20264;-70
2022/07/18 05:24:09;;;;;;;11.85;4.72;;;;;;;16.72;78.88;97027.06;5036349;28;20201;-70
2022/07/18 05:26:36;;;;;;;8.35;4.38;;;;;;;16.75;78.49;97027.53;5036578;28;20206;-70
2022/07/18 05:29:02;;;;;;;14.98;5.03;;;;;;;16.76;77.86;97025.66;5037064;28;20573;-70
2022/07/18 05:31:29;;;;;;;12.00;5.13;;;;;;;17.02;77.87;97023.13;5036650;28;20288;-70
2022/07/18 05:33:55;;;;;;;11.40;4.85;;;;;;;17.29;76.08;97028.44;5033142;28;20210;-69
2022/07/18 05:36:22;;;;;;;10.50;5.22;;;;;;;17.44;76.11;97029.91;5036633;28;20562;-70
2022/07/18 05:38:49;;;;;;;14.40;4.78;;;;;;;17.74;72.31;97033.88;5036243;28;20619;-70
2022/07/18 05:41:16;;;;;;;10.75;4.70;;;;;;;17.76;71.64;97032.66;5036210;28;20764;-70
2022/07/18 05:43:43;;;;;;;10.32;4.70;;;;;;;17.92;71.15;97034.97;5035609;28;20213;-70
2022/07/18 05:46:10;;;;;;;10.10;5.10;;;;;;;17.95;72.34;97039.06;5035992;28;20225;-70
2022/07/18 05:48:36;;;;;;;10.80;5.15;;;;;;;17.94;72.30;97042.75;5035365;28;20201;-70
2022/07/18 05:51:03;;;;;;;11.10;5.07;;;;;;;18.03;69.28;97033.53;5035194;28;20231;-69
2022/07/18 05:53:29;;;;;;;10.73;4.95;;;;;;;18.16;68.17;97030.88;5036199;28;20201;-69
2022/07/18 05:55:57;;;;;;;14.85;5.88;;;;;;;18.29;66.49;97030.91;5035682;28;20201;-70
2022/07/18 05:58:23;;;;;;;15.93;6.10;;;;;;;18.32;66.82;97031.34;5035538;28;20201;-70
2022/07/18 06:00:50;;;;;;;13.98;5.32;;;;;;;18.33;66.94;97032.97;5036318;28;20232;-70
2022/07/18 06:03:16;;;;;;;11.32;4.80;;;;;;;18.54;66.33;97036.22;5034869;28;20237;-70
2022/07/18 06:05:43;;;;;;;9.95;5.20;;;;;;;18.36;66.84;97038.72;5035565;28;20857;-70
2022/07/18 06:08:09;;;;;;;10.30;4.63;;;;;;;18.63;67.08;97031.50;5036464;28;20208;-70
2022/07/18 06:10:36;;;;;;;8.98;4.10;;;;;;;19.02;65.22;97024.25;5036373;28;20224;-70
2022/07/18 06:13:04;;;;;;;12.02;5.38;;;;;;;18.97;64.70;97029.41;5039778;28;20201;-70
2022/07/18 06:15:31;;;;;;;10.85;4.13;;;;;;;19.07;63.86;97029.81;5040561;28;20200;-70
2022/07/18 06:17:57;;;;;;;12.52;4.50;;;;;;;19.34;63.28;97032.16;5040361;28;20208;-70
2022/07/18 06:20:23;;;;;;;8.45;4.07;;;;;;;19.47;63.63;97034.78;5040164;28;20240;-70
2022/07/18 06:22:50;;;;;;;14.10;4.40;;;;;;;19.44;65.72;97035.22;5039519;28;20691;-70
2022/07/18 06:25:17;;;;;;;7.40;4.10;;;;;;;19.61;63.57;97031.03;5040531;28;20221;-70
2022/07/18 06:27:43;;;;;;;10.88;4.32;;;;;;;19.83;61.14;97024.31;5040555;28;20216;-70
2022/07/18 06:30:12;;;;;;;8.13;4.38;;;;;;;19.92;62.32;97039.94;5039839;28;20200;-70
2022/07/18 06:32:39;;;;;;;11.27;4.47;;;;;;;19.93;62.20;97038.88;5035262;28;20201;-70
2022/07/18 06:35:06;;;;;;;8.38;3.38;;;;;;;20.14;62.51;97035.88;5040135;28;20209;-70
2022/07/18 06:37:33;;;;;;;6.07;3.75;;;;;;;20.13;61.82;97036.91;5039351;28;20210;-70
2022/07/18 06:39:59;;;;;;;7.53;3.88;;;;;;;20.01;61.92;97040.47;5040206;28;20205;-69
2022/07/18 06:42:26;;;;;;;6.60;3.65;;;;;;;20.10;60.66;97037.34;5037853;28;20205;-71
2022/07/18 06:44:52;;;;;;;6.53;3.22;;;;;;;20.10;60.27;97039.19;5039768;28;20227;-71
2022/07/18 06:47:20;;;;;;;6.78;3.55;;;;;;;20.58;59.99;97030.34;5039450;28;20209;-71
2022/07/18 06:49:46;;;;;;;13.23;3.30;;;;;;;20.60;59.20;97029.09;5040370;28;20986;-71
2022/07/18 06:52:15;;;;;;;6.97;2.80;;;;;;;20.64;57.48;97034.84;5039054;28;20232;-71
2022/07/18 06:54:42;;;;;;;4.80;2.75;;;;;;;20.72;56.58;97023.84;5038859;28;20198;-71
2022/07/18 06:57:09;;;;;;;7.72;2.83;;;;;;;21.04;57.15;97032.41;5038979;28;20208;-71
2022/07/18 06:59:36;;;;;;;5.47;2.67;;;;;;;21.26;56.90;97038.16;5039008;28;20201;-70
2022/07/18 07:02:02;;;;;;;6.93;2.55;;;;;;;21.44;55.91;97029.03;5036535;28;20588;-71
2022/07/18 07:04:30;;;;;;;4.00;2.38;;;;;;;21.82;56.36;97031.50;5037778;28;20197;-71
2022/07/18 07:06:57;;;;;;;4.50;2.42;;;;;;;21.79;54.70;97031.94;5039575;28;20205;-71
2022/07/18 07:09:23;;;;;;;6.47;2.45;;;;;;;21.92;53.83;97031.75;5039572;28;20208;-71
2022/07/18 07:11:50;;;;;;;3.83;2.20;;;;;;;22.02;52.54;97034.69;5039377;28;20221;-71
2022/07/18 07:14:16;;;;;;;3.13;2.08;;;;;;;22.04;50.98;97032.63;5038410;28;20208;-70
2022/07/18 07:16:42;;;;;;;5.22;2.33;;;;;;;22.31;54.06;97032.00;5039273;28;20205;-70
2022/07/18 07:19:09;;;;;;;5.95;2.28;;;;;;;22.37;50.21;97037.28;5038242;28;20201;-70
2022/07/18 07:21:37;;;;;;;5.25;2.42;;;;;;;22.69;50.63;97028.69;5037189;28;20225;-70
2022/07/18 07:24:04;;;;;;;3.28;2.30;;;;;;;22.72;50.83;97027.38;5038180;28;20923;-71
2022/07/18 07:26:30;;;;;;;5.63;2.00;;;;;;;22.83;50.30;97030.06;5038087;28;20228;-70
2022/07/18 07:28:57;;;;;;;5.10;2.40;;;;;;;23.11;49.63;97024.84;5038317;28;20204;-70
2022/07/18 07:31:23;;;;;;;4.57;2.20;;;;;;;23.30;48.66;97024.44;5037491;28;20251;-71
2022/07/18 07:33:50;;;;;;;5.75;2.47;;;;;;;23.29;49.12;97021.19;5034223;28;20206;-70
2022/07/18 07:36:16;;;;;;;2.72;2.20;;;;;;;23.30;47.17;97022.84;5039107;28;20196;-70
2022/07/18 07:38:44;;;;;;;10.63;2.13;;;;;;;23.47;47.09;97019.97;5038314;28;20213;-70
2022/07/18 07:41:13;;;;;;;3.10;2.17;;;;;;;23.78;48.65;97016.88;5038032;28;20220;-70
2022/07/18 07:43:39;;;;;;;5.32;2.20;;;;;;;24.07;48.06;97019.31;5037713;28;20296;-70
2022/07/18 07:46:06;;;;;;;2.28;2.05;;;;;;;23.90;48.56;97014.94;5038951;28;20224;-70
2022/07/18 07:48:32;;;;;;;5.97;2.22;;;;;;;24.07;46.39;97016.63;5037434;28;20197;-70
2022/07/18 07:50:59;;;;;;;2.63;1.83;;;;;;;24.15;49.53;97012.72;5038607;28;20220;-70
2022/07/18 07:53:25;;;;;;;4.07;2.20;;;;;;;24.27;47.39;97008.88;5036906;28;20207;-70
2022/07/18 07:55:53;;;;;;;6.63;2.50;;;;;;;24.45;45.68;97002.47;5038081;28;20201;-70
2022/07/18 07:58:20;;;;;;;3.20;2.17;;;;;;;24.45;44.75;97018.66;5038345;28;20206;-70
2022/07/18 08:00:46;;;;;;;2.80;1.95;;;;;;;24.57;44.95;97006.72;5037857;28;20232;-70
2022/07/18 08:03:13;;;;;;;3.15;1.90;;;;;;;24.60;42.89;97011.63;5037085;28;20560;-70
2022/07/18 08:05:45;;;;;;;2.63;1.95;;;;;;;24.89;42.94;97005.88;5037878;28;20217;-70
2022/07/18 08:08:12;;;;;;;4.10;2.08;;;;;;;24.79;44.47;96999.53;5038001;28;20209;-71
2022/07/18 08:10:38;;;;;;;6.50;2.03;;;;;;;24.77;43.42;96997.09;5037467;28;20225;-70
2022/07/18 08:13:06;;;;;;;3.13;2.10;;;;;;;25.08;43.25;97004.56;5036963;28;20201;-71
2022/07/18 08:15:33;;;;;;;2.83;2.05;;;;;;;25.10;42.63;97001.63;5038509;28;20204;-70
2022/07/18 08:18:00;;;;;;;3.72;2.00;;;;;;;25.26;42.61;97001.59;5037999;28;20288;-70
2022/07/18 08:20:26;;;;;;;3.72;2.20;;;;;;;25.56;42.93;97000.09;5037275;28;20240;-71
2022/07/18 08:22:58;;;;;;;2.50;2.00;;;;;;;25.79;42.89;97007.13;5036925;28;20205;-70
2022/07/18 08:25:25;;;;;;;2.25;1.75;;;;;;;25.70;41.81;97001.38;5037313;28;20682;-71
2022/07/18 08:27:52;;;;;;;2.80;2.10;;;;;;;25.75;40.95;97001.44;5037807;28;20201;-70
2022/07/18 08:30:21;;;;;;;5.00;2.15;;;;;;;25.92;41.54;96997.56;5037244;28;20313;-71
2022/07/18 08:32:48;;;;;;;2.67;1.85;;;;;;;26.05;42.28;97001.75;5036682;28;20205;-71
2022/07/18 08:35:14;;;;;;;4.03;1.95;;;;;;;26.19;41.45;96992.97;5032895;28;20201;-70
2022/07/18 08:37:41;;;;;;;3.25;1.90;;;;;;;26.27;42.29;97003.31;5037738;28;20557;-70
2022/07/18 08:40:09;;;;;;;2.58;1.80;;;;;;;26.43;38.87;96994.31;5037866;28;20205;-71
2022/07/18 08:42:35;;;;;;;6.78;1.80;;;;;;;26.75;39.29;96992.41;5036775;28;20220;-70
2022/07/18 08:45:03;;;;;;;7.00;1.85;;;;;;;26.92;38.35;96987.66;5038113;28;20212;-70
2022/07/18 08:47:32;;;;;;;4.78;1.88;;;;;;;27.23;38.07;96993.03;5037690;28;20205;-70
2022/07/18 08:49:59;;;;;;;4.22;1.70;;;;;;;27.19;38.21;96989.22;5036150;28;20865;-70
2022/07/18 08:52:26;;;;;;;3.33;2.03;;;;;;;27.18;39.95;96996.50;5036158;28;20379;-71
2022/07/18 08:54:52;;;;;;;3.50;1.95;;;;;;;27.27;37.85;96989.50;5036782;28;20783;-70
2022/07/18 08:57:19;;;;;;;2.28;1.80;;;;;;;27.59;37.79;96990.22;5036914;28;20680;-71
2022/07/18 08:59:45;;;;;;;3.92;1.75;;;;;;;27.72;37.98;96998.69;5036751;28;20504;-71
2022/07/18 09:02:12;;;;;;;6.30;1.80;;;;;;;27.62;39.12;96995.09;5036498;28;20227;-70
2022/07/18 09:04:42;;;;;;;2.00;1.60;;;;;;;28.06;36.44;96996.34;5035803;28;20224;-70
2022/07/18 09:07:09;;;;;;;2.17;1.45;;;;;;;28.10;37.90;97003.66;5036419;28;20224;-70
2022/07/18 09:09:37;;;;;;;1.90;1.60;;;;;;;28.02;33.85;97000.69;5036467;28;20201;-70
2022/07/18 09:12:05;;;;;;;1.80;1.58;;;;;;;28.33;35.13;97005.09;5037030;28;20225;-70
2022/07/18 09:14:35;;;;;;;4.15;1.60;;;;;;;28.64;36.08;97007.53;5036402;28;20205;-70
2022/07/18 09:17:07;;;;;;;3.28;1.65;;;;;;;28.40;34.06;96996.44;5037688;28;20220;-70
2022/07/18 09:19:33;;;;;;;2.63;1.50;;;;;;;28.46;33.56;96987.22;5036393;28;20198;-70
2022/07/18 09:22:18;;;;;;;2.92;1.60;;;;;;;28.66;33.03;96998.06;5036442;28;20740;-70
2022/07/18 09:24:54;;;;;;;1.60;1.40;;;;;;;28.74;30.97;96994.84;5036779;28;20201;-70
2022/07/18 09:27:26;;;;;;;2.38;1.42;;;;;;;28.90;32.09;96991.03;5036472;28;20224;-70
2022/07/18 09:30:17;;;;;;;2.17;1.40;;;;;;;29.02;33.49;96991.53;5036226;28;20208;-70
2022/07/18 09:32:45;;;;;;;2.33;1.40;;;;;;;28.82;30.83;96988.03;5035659;28;20213;-71
2022/07/18 09:35:14;;;;;;;1.95;1.33;;;;;;;28.94;33.15;96989.38;5032201;28;20561;-71
2022/07/18 09:37:53;;;;;;;3.03;1.30;;;;;;;29.03;32.33;96983.16;5036023;28;20284;-71
2022/07/18 09:40:22;;;;;;;2.75;1.60;;;;;;;28.95;30.38;96986.41;5036584;28;20912;-71
2022/07/18 09:42:50;;;;;;;2.58;1.60;;;;;;;29.16;32.41;96992.59;5035561;28;20803;-70
2022/07/18 09:45:16;;;;;;;2.58;1.70;;;;;;;29.26;31.20;96998.81;5036182;28;20632;-70
2022/07/18 09:47:51;;;;;;;1.92;1.40;;;;;;;29.13;32.82;96993.16;5037027;28;20628;-70
2022/07/18 09:50:24;;;;;;;2.40;1.60;;;;;;;29.18;29.93;96987.72;5035930;28;20290;-70
2022/07/18 09:53:00;;;;;;;3.03;1.40;;;;;;;29.39;31.18;96987.44;5034974;28;20200;-70
2022/07/18 09:55:27;;;;;;;1.90;1.42;;;;;;;29.11;31.54;96987.19;5036564;28;20205;-70
2022/07/18 09:58:01;;;;;;;3.83;1.40;;;;;;;29.58;31.44;96985.69;5036160;28;20220;-70
2022/07/18 10:00:30;;;;;;;2.13;1.52;;;;;;;29.64;30.90;96988.13;5035032;28;20221;-70
2022/07/18 10:02:58;;;;;;;5.15;1.50;;;;;;;29.66;30.86;96977.78;5034942;28;20343;-70
2022/07/18 10:05:26;;;;;;;3.13;1.55;;;;;;;29.56;29.24;96981.63;5036655;28;20201;-70
2022/07/18 10:07:53;;;;;;;3.70;1.38;;;;;;;29.54;28.99;96979.19;5036083;28;20213;-68
2022/07/18 10:10:24;;;;;;;1.65;1.48;;;;;;;29.74;30.34;96979.13;5036832;28;20228;-68
2022/07/18 10:12:52;;;;;;;4.28;1.15;;;;;;;29.75;31.23;96981.56;5035819;28;20205;-68
2022/07/18 10:15:21;;;;;;;1.75;1.38;;;;;;;29.56;29.46;96979.75;5036376;28;20316;-70
2022/07/18 10:17:48;;;;;;;2.55;1.40;;;;;;;29.55;30.38;96975.41;5036823;28;20291;-70
2022/07/18 10:20:14;;;;;;;3.92;1.30;;;;;;;29.77;28.33;96979.38;5036479;28;20233;-70
2022/07/18 10:22:42;;;;;;;5.80;1.60;;;;;;;30.24;28.36;96979.66;5035488;28;20194;-70
2022/07/18 10:25:10;;;;;;;3.22;1.63;;;;;;;30.48;29.35;96969.75;5036208;28;20201;-70
2022/07/18 10:27:52;;;;;;;3.60;1.48;;;;;;;30.59;28.62;96972.09;5037392;28;20225;-71
2022/07/18 10:30:30;;;;;;;2.20;1.50;;;;;;;30.54;27.95;96969.41;5035990;28;21271;-71
2022/07/18 10:32:56;;;;;;;3.85;1.40;;;;;;;30.77;29.17;96970.56;5035627;28;20879;-71
2022/07/18 10:36:02;;;;;;;6.75;3.60;;;;;;;31.51;29.29;96969.84;5033167;28;20201;-71
2022/07/18 10:38:29;;;;;;;17.92;9.55;;;;;;;31.33;28.38;96973.31;5033228;28;20205;-72
2022/07/18 10:41:04;;;;;;;5.25;2.50;;;;;;;31.43;27.28;96966.91;5035819;28;20217;-72
2022/07/18 10:43:41;;;;;;;8.30;4.00;;;;;;;32.28;29.69;96964.72;5035187;28;20205;-72
2022/07/18 10:46:09;;;;;;;4.40;2.20;;;;;;;31.92;29.05;96965.50;5036076;28;20315;-69
2022/07/18 10:48:55;;;;;;;16.45;5.07;;;;;;;32.72;27.64;96958.56;5035789;28;20304;-71
2022/07/18 10:51:32;;;;;;;12.23;7.22;;;;;;;32.55;28.23;96954.78;5034867;28;20213;-71
2022/07/18 10:54:05;;;;;;;8.07;2.67;;;;;;;32.44;30.00;96953.28;5035589;28;20205;-72
2022/07/18 10:57:07;;;;;;;3.75;1.90;;;;;;;33.11;28.00;96956.28;5036122;28;20206;-71
2022/07/18 10:59:36;;;;;;;3.28;1.50;;;;;;;32.08;26.12;96953.28;5040113;28;20205;-72
2022/07/18 11:02:06;;;;;;;5.95;1.40;;;;;;;31.94;27.49;96957.81;5039669;28;20221;-72
2022/07/18 11:04:36;;;;;;;2.50;1.30;;;;;;;31.54;26.78;96955.63;5038719;28;20201;-72
2022/07/18 11:07:10;;;;;;;1.35;1.10;;;;;;;31.82;28.55;96954.72;5039833;28;20252;-72
2022/07/18 11:09:40;;;;;;;1.63;1.30;;;;;;;31.21;28.76;96953.00;5039739;28;20205;-69
2022/07/18 11:12:30;;;;;;;3.58;1.50;;;;;;;31.43;27.16;96951.41;5039187;28;20224;-69
2022/07/18 11:15:13;;;;;;;3.65;1.50;;;;;;;31.57;27.01;96946.91;5039540;28;20675;-70
2022/07/18 11:18:03;;;;;;;4.68;1.20;;;;;;;31.53;26.82;96946.66;5037442;28;20690;-69
2022/07/18 11:20:36;;;;;;;4.05;1.30;;;;;;;31.74;26.92;96936.31;5039066;28;20304;-70
2022/07/18 11:23:05;;;;;;;3.60;1.30;;;;;;;31.26;28.37;96934.69;5038802;28;20237;-69
2022/07/18 11:25:31;;;;;;;1.52;1.13;;;;;;;31.11;26.26;96932.16;5038918;28;20236;-69
2022/07/18 11:27:58;;;;;;;2.58;1.30;;;;;;;31.33;28.33;96939.81;5038608;28;20221;-69
2022/07/18 11:30:26;;;;;;;2.45;1.23;;;;;;;31.64;27.95;96936.44;5039748;28;20299;-69
2022/07/18 11:32:52;;;;;;;2.13;1.20;;;;;;;31.45;27.52;96929.31;5038267;28;20282;-69
2022/07/18 11:35:25;;;;;;;5.57;1.20;;;;;;;31.59;26.87;96931.03;5035823;28;20193;-69